Finnhawk — OJNL — position and weather

sailwx.info

Track history (hours):
 
Tides and Currents Weather Stations Pressure Air Temp Water Temp Dewpoint Dewpoint Depression Visibility Wind Speed Wind Dir Waves Ship Positions

Finnhawk

Last reported at 2018-May-22 00:05 UTC. Time now 2018-May-22 10:02 UTC.
Position N 59°10' E 021°36'.

Length 163 m; draft 6.2 m.

Type: Ship. MMSI: 230007000.

Date/timePositionNaut miles runAvg speedWind from/ knotsBaromVisibWave heightAir tempDewpointWater temp
2018-May-22 00:05N 59°10' E 021°36'117.9
2018-May-22 00:00N 59°11' E 021°38'917.8
2018-May-21 23:30N 59°16' E 021°51'1117.6
2018-May-21 22:54N 59°23' E 022°08'717.5
2018-May-21 22:29N 59°27' E 022°20'917.5
2018-May-21 22:00N 59°31' E 022°34'917.6
2018-May-21 21:30N 59°36' E 022°48'917.3
2018-May-21 21:00N 59°41' E 023°02'713.6
2018-May-21 20:30N 59°48' E 022°59'2 3.8
2018-May-21 20:00N 59°49' E 022°57'0 0.0
2018-May-21 19:30N 59°49' E 022°57'0 0.0
2018-May-21 18:55N 59°49' E 022°57'0 0.0
2018-May-21 18:28N 59°49' E 022°57'0 0.0
2018-May-21 17:58N 59°49' E 022°57'0 0.0
2018-May-21 17:25N 59°49' E 022°57'0 0.0
2018-May-21 16:55N 59°49' E 022°57'0 0.0
2018-May-21 16:28N 59°49' E 022°57'0 0.0
2018-May-21 15:58N 59°49' E 022°57'0 0.0
2018-May-21 15:28N 59°49' E 022°57'0 0.0
2018-May-21 14:52N 59°49' E 022°57'0 0.0
2018-May-21 14:25N 59°49' E 022°57'0 0.0
2018-May-21 13:58N 59°49' E 022°57'0 0.0
2018-May-21 13:28N 59°49' E 022°57'0 0.0
2018-May-21 12:55N 59°49' E 022°57'0 0.0
2018-May-21 12:28N 59°49' E 022°57'0 0.0
2018-May-21 11:52N 59°49' E 022°57'0 0.0
2018-May-21 11:28N 59°49' E 022°57'0 0.0
2018-May-21 10:58N 59°49' E 022°57'0 0.0
2018-May-21 10:28N 59°49' E 022°57'0 0.0
2018-May-21 09:58N 59°49' E 022°57'0 0.0
2018-May-21 09:28N 59°49' E 022°57'0 0.0
2018-May-21 08:16N 59°49' E 022°57'0 0.0
2018-May-21 07:58N 59°49' E 022°57'0 0.0
2018-May-21 06:46N 59°49' E 022°57'0 0.0
2018-May-21 06:28N 59°49' E 022°57'0 0.0
2018-May-21 05:58N 59°49' E 022°57'0 0.0
2018-May-21 05:28N 59°49' E 022°57'0 0.0
2018-May-21 04:58N 59°49' E 022°57'0 0.0
2018-May-21 04:28N 59°49' E 022°57'0 0.0
2018-May-21 03:58N 59°49' E 022°57'0 0.0
2018-May-21 03:28N 59°49' E 022°57'0 0.0
2018-May-21 02:58N 59°49' E 022°57'0 0.5
2018-May-21 02:31N 59°49' E 022°57'612.7
2018-May-21 02:01N 59°44' E 023°04'917.6
2018-May-21 01:31N 59°36' E 022°56'917.8
2018-May-21 01:01N 59°29' E 022°45'1019.2
2018-May-21 00:30N 59°24' E 022°29'1019.4
2018-May-21 00:00N 59°18' E 022°14'1019.3
2018-May-20 23:31N 59°12' E 021°59'1019.4
2018-May-20 23:01N 59°06' E 021°45'1019.4
2018-May-20 22:30N 58°58' E 021°32'1019.2
2018-May-20 22:00N 58°52' E 021°19'18918.7
2018-May-20 11:55N 56°38' E 017°10'819.6
2018-May-20 11:30N 56°30' E 017°05'1019.6
2018-May-20 11:01N 56°21' E 016°58'1019.5
2018-May-20 10:31N 56°12' E 016°52'1019.1
2018-May-20 10:01N 56°04' E 016°44'1019.4
2018-May-20 09:31N 55°58' E 016°30'1019.4
2018-May-20 09:01N 55°53' E 016°15'1019.3
2018-May-20 08:31N 55°48' E 016°00'1019.3
2018-May-20 08:00N 55°43' E 015°45'1019.4
2018-May-20 07:31N 55°39' E 015°30'1019.6
2018-May-20 07:01N 55°34' E 015°15'1019.7
2018-May-20 06:31N 55°29' E 015°00'1119.7
2018-May-20 05:57N 55°24' E 014°43'919.4
2018-May-20 05:29N 55°18' E 014°31'919.6
2018-May-20 05:00N 55°10' E 014°21'1019.7
2018-May-20 04:30N 55°03' E 014°10'918.9
2018-May-20 04:00N 54°58' E 013°56'1419.7
2018-May-20 03:18N 54°54' E 013°32'619.7
2018-May-20 03:01N 54°53' E 013°23'1119.5
2018-May-20 02:28N 54°49' E 013°06'918.4
2018-May-20 02:00N 54°46' E 012°51'816.4
2018-May-20 01:31N 54°42' E 012°39'816.6
2018-May-20 01:01N 54°37' E 012°29'816.1
2018-May-20 00:30N 54°31' E 012°18'815.4
2018-May-20 00:00N 54°25' E 012°11'815.5
2018-May-19 23:31N 54°19' E 012°04'713.9
2018-May-19 23:01N 54°12' E 012°05'3 5.8
2018-May-19 22:29N 54°09' E 012°06'0 0.0
2018-May-19 21:56N 54°09' E 012°06'0 0.0
2018-May-19 21:29N 54°09' E 012°06'0 0.0
2018-May-19 20:59N 54°09' E 012°06'0 0.0
2018-May-19 18:32N 54°09' E 012°06'0 0.0
2018-May-19 18:23N 54°09' E 012°06'0 0.0
2018-May-19 17:56N 54°09' E 012°06'0 0.0
2018-May-19 17:26N 54°09' E 012°06'0 0.0
2018-May-19 16:44N 54°09' E 012°06'0 0.0
2018-May-19 16:29N 54°09' E 012°06'0 0.0
2018-May-19 15:29N 54°09' E 012°06'0 0.0
2018-May-19 14:56N 54°09' E 012°06'0 0.8
2018-May-19 14:31N 54°09' E 012°06'2 4.0
2018-May-19 14:00N 54°11' E 012°06'3414.9
2018-May-19 11:42N 54°42' E 012°31'418.2
2018-May-19 11:30N 54°44' E 012°36'2018.2
2018-May-19 10:26N 54°52' E 013°07'918.3
2018-May-19 09:55N 54°55' E 013°22'918.5
2018-May-19 09:25N 54°59' E 013°37'818.2
2018-May-19 08:57N 55°02' E 013°51'1018.4
2018-May-19 08:26N 55°05' E 014°06'818.6
2018-May-19 08:00N 55°11' E 014°15'918.7
2018-May-19 07:30N 55°18' E 014°26'918.7
2018-May-19 07:00N 55°25' E 014°36'918.6
2018-May-19 06:30N 55°30' E 014°50'918.6
2018-May-19 06:00N 55°35' E 015°04'918.6
2018-May-19 05:30N 55°40' E 015°19'918.6
2018-May-19 05:00N 55°44' E 015°33'918.8
2018-May-19 04:30N 55°49' E 015°47'919.0
2018-May-19 04:00N 55°54' E 016°02'919.0
2018-May-19 03:30N 55°58' E 016°17'918.9
2018-May-19 03:00N 56°03' E 016°31'918.7
2018-May-19 02:30N 56°09' E 016°44'1019.0
2018-May-19 02:00N 56°18' E 016°51'919.0
2018-May-19 01:30N 56°27' E 016°57'1019.0
2018-May-19 01:00N 56°36' E 017°03'19518.6
2018-May-18 14:31N 58°58' E 021°14'019.8
2018-May-18 14:29N 58°59' E 021°15'919.6
2018-May-18 14:00N 59°05' E 021°28'1019.6
2018-May-18 13:31N 59°12' E 021°42'1019.4
2018-May-18 13:00N 59°18' E 021°56'3219.1
2018-May-18 11:18N 59°36' E 022°49'619.3
2018-May-18 11:00N 59°39' E 022°59'713.5
2018-May-18 10:31N 59°46' E 023°01'3 0.4
2018-May-18 02:22N 59°49' E 022°57'615.4
2018-May-18 01:58N 59°44' E 023°04'24216.1
2018-May-17 10:55N 56°39' E 018°06'1216.3
2018-May-17 10:11N 56°31' E 017°49'516.5
2018-May-17 09:53N 56°28' E 017°42'6816.3
2018-May-17 05:43N 55°49' E 016°02'316.3
2018-May-17 05:30N 55°48' E 015°57'816.3
2018-May-17 05:00N 55°44' E 015°44'816.2
2018-May-17 04:30N 55°40' E 015°32'816.3
2018-May-17 04:00N 55°36' E 015°19'816.5
2018-May-17 03:30N 55°32' E 015°06'816.3
2018-May-17 03:00N 55°28' E 014°54'816.5
2018-May-17 02:30N 55°24' E 014°41'816.2
2018-May-17 02:00N 55°18' E 014°31'916.3
2018-May-17 01:26N 55°11' E 014°21'716.3
2018-May-17 01:00N 55°05' E 014°14'815.6
2018-May-17 00:30N 54°60' E 014°04'2416.1
2018-May-16 23:03N 54°52' E 013°25'116.1
2018-May-16 23:00N 54°52' E 013°23'1016.0
2018-May-16 22:24N 54°49' E 013°08'615.8
2018-May-16 22:00N 54°46' E 012°57'815.8
2018-May-16 21:30N 54°44' E 012°45'815.6
2018-May-16 21:00N 54°39' E 012°34'816.0
2018-May-16 20:30N 54°34' E 012°23'815.7
2018-May-16 20:00N 54°28' E 012°15'1114.7
2018-May-16 19:17N 54°19' E 012°06'412.9
2018-May-16 18:59N 54°15' E 012°04'510.1
2018-May-16 18:30N 54°10' E 012°06'2 3.8
2018-May-16 18:00N 54°08' E 012°06'0 0.0
2018-May-16 16:33N 54°08' E 012°06'0 0.0
2018-May-16 16:30N 54°08' E 012°06'0 0.0
2018-May-16 13:12N 54°08' E 012°06'0 0.0
2018-May-16 12:42N 54°08' E 012°06'0 0.0
2018-May-16 12:27N 54°08' E 012°06'0 0.0
2018-May-16 12:00N 54°08' E 012°06'0 0.0
2018-May-16 11:00N 54°08' E 012°06'0 0.0
2018-May-16 10:30N 54°08' E 012°06'0 0.0
2018-May-16 10:00N 54°08' E 012°06'0 0.0
2018-May-16 07:12N 54°08' E 012°06'0 0.0
2018-May-16 07:00N 54°08' E 012°06'0 0.0
2018-May-16 06:27N 54°08' E 012°06'0 0.0
2018-May-16 06:00N 54°08' E 012°06'0 0.0
2018-May-16 05:27N 54°08' E 012°06'0 0.0
2018-May-16 04:51N 54°08' E 012°06'0 0.0
2018-May-16 03:09N 54°08' E 012°06'0 1.9
2018-May-16 03:00N 54°09' E 012°06'2 3.7
2018-May-16 02:30N 54°10' E 012°06'3 5.6
2018-May-16 02:00N 54°13' E 012°04'4 8.1
2018-May-16 01:29N 54°17' E 012°01'815.9
2018-May-16 01:01N 54°23' E 012°08'816.0
2018-May-16 00:31N 54°31' E 012°13'5216.5
2018-May-15 21:21N 54°57' E 013°32'1717.4
2018-May-15 20:24N 55°03' E 013°58'716.6
2018-May-15 20:00N 55°06' E 014°08'917.1
2018-May-15 19:30N 55°13' E 014°17'917.1
2018-May-15 19:00N 55°20' E 014°27'917.2
2018-May-15 18:30N 55°26' E 014°36'917.4
2018-May-15 18:00N 55°31' E 014°50'917.4
2018-May-15 17:30N 55°35' E 015°03'917.4
2018-May-15 17:00N 55°39' E 015°16'34717.2
2018-May-14 20:49N 59°40' E 023°03'515.6
2018-May-14 20:31N 59°45' E 023°02'510.0
2018-May-14 20:00N 59°49' E 022°57'0 0.0
2018-May-14 19:18N 59°49' E 022°57'0 0.0
2018-May-14 18:48N 59°49' E 022°57'0 0.0
2018-May-14 17:18N 59°49' E 022°57'0 0.0
2018-May-14 07:52N 59°49' E 022°57'0 0.2
2018-May-14 07:19N 59°49' E 022°57'0 0.0
2018-May-14 03:44N 59°49' E 022°57'0 0.0
2018-May-14 02:42N 59°49' E 022°57'0 1.0
2018-May-14 02:29N 59°49' E 022°57'713.8
2018-May-14 02:00N 59°44' E 023°04'917.9
2018-May-14 01:30N 59°35' E 022°59'24218.3
2018-May-13 12:16N 56°51' E 017°20'519.6
2018-May-13 12:00N 56°46' E 017°16'1019.5
2018-May-13 11:31N 56°37' E 017°11'1019.6
2018-May-13 11:00N 56°28' E 017°04'1019.4
2018-May-13 10:30N 56°19' E 016°58'1019.5
2018-May-13 10:00N 56°10' E 016°51'918.8
2018-May-13 09:31N 56°03' E 016°41'1019.3
2018-May-13 09:01N 55°57' E 016°27'1019.1
2018-May-13 08:30N 55°52' E 016°13'1019.1
2018-May-13 08:01N 55°47' E 015°58'1019.2
2018-May-13 07:31N 55°42' E 015°44'1019.5
2018-May-13 07:00N 55°37' E 015°28'1019.3
2018-May-13 06:31N 55°33' E 015°13'1019.4
2018-May-13 06:01N 55°29' E 014°58'1019.4
2018-May-13 05:31N 55°24' E 014°43'1019.2
2018-May-13 05:00N 55°18' E 014°30'1019.5
2018-May-13 04:30N 55°10' E 014°19'1019.6
2018-May-13 04:00N 55°02' E 014°09'1419.3
2018-May-13 03:17N 54°57' E 013°47'719.5
2018-May-13 02:55N 54°55' E 013°35'2619.0
2018-May-13 01:32N 54°46' E 012°52'217.2
2018-May-13 01:27N 54°46' E 012°49'817.0
2018-May-13 00:58N 54°41' E 012°37'817.1
2018-May-13 00:30N 54°36' E 012°27'816.9
2018-May-13 00:00N 54°30' E 012°16'816.9
2018-May-12 23:30N 54°23' E 012°08'714.6
2018-May-12 23:00N 54°16' E 012°04'612.0
2018-May-12 22:30N 54°11' E 012°06'2 4.1
2018-May-12 22:00N 54°09' E 012°06'0 0.0
2018-May-12 21:30N 54°09' E 012°06'0 0.0
2018-May-12 20:59N 54°09' E 012°06'0 0.0
2018-May-12 20:29N 54°09' E 012°06'0 0.0
2018-May-12 19:56N 54°09' E 012°06'0 0.0
2018-May-12 17:53N 54°09' E 012°06'0 0.0
2018-May-12 16:56N 54°09' E 012°06'0 0.0
2018-May-12 15:59N 54°09' E 012°06'0 0.0
2018-May-12 15:23N 54°09' E 012°06'0 0.0
2018-May-12 14:56N 54°09' E 012°06'1 1.3
2018-May-12 14:29N 54°09' E 012°06'2 3.9
2018-May-12 14:00N 54°11' E 012°05'612.6
2018-May-12 13:30N 54°17' E 012°01'816.8
2018-May-12 13:00N 54°24' E 012°08'1616.8
2018-May-12 12:04N 54°38' E 012°20'218.5
2018-May-12 11:58N 54°39' E 012°23'918.6
2018-May-12 11:28N 54°44' E 012°37'1518.2
2018-May-12 10:37N 54°50' E 013°01'318.0
2018-May-12 10:28N 54°51' E 013°05'918.4
2018-May-12 09:59N 54°54' E 013°20'918.1
2018-May-12 09:29N 54°57' E 013°35'1217.9
2018-May-12 08:50N 55°01' E 013°54'618.3
2018-May-12 08:30N 55°04' E 014°03'918.1
2018-May-12 08:01N 55°11' E 014°14'918.1
2018-May-12 07:30N 55°17' E 014°24'918.5
2018-May-12 07:00N 55°24' E 014°35'918.4
2018-May-12 06:30N 55°30' E 014°48'918.5
2018-May-12 06:00N 55°34' E 015°02'918.4
2018-May-12 05:30N 55°39' E 015°17'918.3
2018-May-12 05:01N 55°44' E 015°30'918.4
2018-May-12 04:30N 55°49' E 015°44'918.5
2018-May-12 04:00N 55°54' E 015°58'918.9
2018-May-12 03:31N 55°58' E 016°13'919.0
2018-May-12 03:00N 56°03' E 016°28'2318.0
2018-May-12 01:44N 56°21' E 016°53'  
Track history (hours):
 
Tides and Currents Weather Stations Pressure Air Temp Water Temp Dewpoint Dewpoint Depression Visibility Wind Speed Wind Dir Waves Ship Positions

Finnhawk

Last reported at 2018-May-22 00:05 UTC. Time now 2018-May-22 10:02 UTC.
Position N 59°10' E 021°36'.

Length 163 m; draft 6.2 m.

Type: Ship. MMSI: 230007000.

Date/timePositionNaut miles runAvg speedWind from/ knotsBaromVisibWave heightAir tempDewpointWater temp
2018-May-22 00:05N 59°10' E 021°36'117.9
2018-May-22 00:00N 59°11' E 021°38'917.8
2018-May-21 23:30N 59°16' E 021°51'1117.6
2018-May-21 22:54N 59°23' E 022°08'717.5
2018-May-21 22:29N 59°27' E 022°20'917.5
2018-May-21 22:00N 59°31' E 022°34'917.6
2018-May-21 21:30N 59°36' E 022°48'917.3
2018-May-21 21:00N 59°41' E 023°02'713.6
2018-May-21 20:30N 59°48' E 022°59'2 3.8
2018-May-21 20:00N 59°49' E 022°57'0 0.0
2018-May-21 19:30N 59°49' E 022°57'0 0.0
2018-May-21 18:55N 59°49' E 022°57'0 0.0
2018-May-21 18:28N 59°49' E 022°57'0 0.0
2018-May-21 17:58N 59°49' E 022°57'0 0.0
2018-May-21 17:25N 59°49' E 022°57'0 0.0
2018-May-21 16:55N 59°49' E 022°57'0 0.0
2018-May-21 16:28N 59°49' E 022°57'0 0.0
2018-May-21 15:58N 59°49' E 022°57'0 0.0
2018-May-21 15:28N 59°49' E 022°57'0 0.0
2018-May-21 14:52N 59°49' E 022°57'0 0.0
2018-May-21 14:25N 59°49' E 022°57'0 0.0
2018-May-21 13:58N 59°49' E 022°57'0 0.0
2018-May-21 13:28N 59°49' E 022°57'0 0.0
2018-May-21 12:55N 59°49' E 022°57'0 0.0
2018-May-21 12:28N 59°49' E 022°57'0 0.0
2018-May-21 11:52N 59°49' E 022°57'0 0.0
2018-May-21 11:28N 59°49' E 022°57'0 0.0
2018-May-21 10:58N 59°49' E 022°57'0 0.0
2018-May-21 10:28N 59°49' E 022°57'0 0.0
2018-May-21 09:58N 59°49' E 022°57'0 0.0
2018-May-21 09:28N 59°49' E 022°57'0 0.0
2018-May-21 08:16N 59°49' E 022°57'0 0.0
2018-May-21 07:58N 59°49' E 022°57'0 0.0
2018-May-21 06:46N 59°49' E 022°57'0 0.0
2018-May-21 06:28N 59°49' E 022°57'0 0.0
2018-May-21 05:58N 59°49' E 022°57'0 0.0
2018-May-21 05:28N 59°49' E 022°57'0 0.0
2018-May-21 04:58N 59°49' E 022°57'0 0.0
2018-May-21 04:28N 59°49' E 022°57'0 0.0
2018-May-21 03:58N 59°49' E 022°57'0 0.0
2018-May-21 03:28N 59°49' E 022°57'0 0.0
2018-May-21 02:58N 59°49' E 022°57'0 0.5
2018-May-21 02:31N 59°49' E 022°57'612.7
2018-May-21 02:01N 59°44' E 023°04'917.6
2018-May-21 01:31N 59°36' E 022°56'917.8
2018-May-21 01:01N 59°29' E 022°45'1019.2
2018-May-21 00:30N 59°24' E 022°29'1019.4
2018-May-21 00:00N 59°18' E 022°14'1019.3
2018-May-20 23:31N 59°12' E 021°59'1019.4
2018-May-20 23:01N 59°06' E 021°45'1019.4
2018-May-20 22:30N 58°58' E 021°32'1019.2
2018-May-20 22:00N 58°52' E 021°19'18918.7
2018-May-20 11:55N 56°38' E 017°10'819.6
2018-May-20 11:30N 56°30' E 017°05'1019.6
2018-May-20 11:01N 56°21' E 016°58'1019.5
2018-May-20 10:31N 56°12' E 016°52'1019.1
2018-May-20 10:01N 56°04' E 016°44'1019.4
2018-May-20 09:31N 55°58' E 016°30'1019.4
2018-May-20 09:01N 55°53' E 016°15'1019.3
2018-May-20 08:31N 55°48' E 016°00'1019.3
2018-May-20 08:00N 55°43' E 015°45'1019.4
2018-May-20 07:31N 55°39' E 015°30'1019.6
2018-May-20 07:01N 55°34' E 015°15'1019.7
2018-May-20 06:31N 55°29' E 015°00'1119.7
2018-May-20 05:57N 55°24' E 014°43'919.4
2018-May-20 05:29N 55°18' E 014°31'919.6
2018-May-20 05:00N 55°10' E 014°21'1019.7
2018-May-20 04:30N 55°03' E 014°10'918.9
2018-May-20 04:00N 54°58' E 013°56'1419.7
2018-May-20 03:18N 54°54' E 013°32'619.7
2018-May-20 03:01N 54°53' E 013°23'1119.5
2018-May-20 02:28N 54°49' E 013°06'918.4
2018-May-20 02:00N 54°46' E 012°51'816.4
2018-May-20 01:31N 54°42' E 012°39'816.6
2018-May-20 01:01N 54°37' E 012°29'816.1
2018-May-20 00:30N 54°31' E 012°18'815.4
2018-May-20 00:00N 54°25' E 012°11'815.5
2018-May-19 23:31N 54°19' E 012°04'713.9
2018-May-19 23:01N 54°12' E 012°05'3 5.8
2018-May-19 22:29N 54°09' E 012°06'0 0.0
2018-May-19 21:56N 54°09' E 012°06'0 0.0
2018-May-19 21:29N 54°09' E 012°06'0 0.0
2018-May-19 20:59N 54°09' E 012°06'0 0.0
2018-May-19 18:32N 54°09' E 012°06'0 0.0
2018-May-19 18:23N 54°09' E 012°06'0 0.0
2018-May-19 17:56N 54°09' E 012°06'0 0.0
2018-May-19 17:26N 54°09' E 012°06'0 0.0
2018-May-19 16:44N 54°09' E 012°06'0 0.0
2018-May-19 16:29N 54°09' E 012°06'0 0.0
2018-May-19 15:29N 54°09' E 012°06'0 0.0
2018-May-19 14:56N 54°09' E 012°06'0 0.8
2018-May-19 14:31N 54°09' E 012°06'2 4.0
2018-May-19 14:00N 54°11' E 012°06'3414.9
2018-May-19 11:42N 54°42' E 012°31'418.2
2018-May-19 11:30N 54°44' E 012°36'2018.2
2018-May-19 10:26N 54°52' E 013°07'918.3
2018-May-19 09:55N 54°55' E 013°22'918.5
2018-May-19 09:25N 54°59' E 013°37'818.2
2018-May-19 08:57N 55°02' E 013°51'1018.4
2018-May-19 08:26N 55°05' E 014°06'818.6
2018-May-19 08:00N 55°11' E 014°15'918.7
2018-May-19 07:30N 55°18' E 014°26'918.7
2018-May-19 07:00N 55°25' E 014°36'918.6
2018-May-19 06:30N 55°30' E 014°50'918.6
2018-May-19 06:00N 55°35' E 015°04'918.6
2018-May-19 05:30N 55°40' E 015°19'918.6
2018-May-19 05:00N 55°44' E 015°33'918.8
2018-May-19 04:30N 55°49' E 015°47'919.0
2018-May-19 04:00N 55°54' E 016°02'919.0
2018-May-19 03:30N 55°58' E 016°17'918.9
2018-May-19 03:00N 56°03' E 016°31'918.7
2018-May-19 02:30N 56°09' E 016°44'1019.0
2018-May-19 02:00N 56°18' E 016°51'919.0
2018-May-19 01:30N 56°27' E 016°57'1019.0
2018-May-19 01:00N 56°36' E 017°03'19518.6
2018-May-18 14:31N 58°58' E 021°14'019.8
2018-May-18 14:29N 58°59' E 021°15'919.6
2018-May-18 14:00N 59°05' E 021°28'1019.6
2018-May-18 13:31N 59°12' E 021°42'1019.4
2018-May-18 13:00N 59°18' E 021°56'3219.1
2018-May-18 11:18N 59°36' E 022°49'619.3
2018-May-18 11:00N 59°39' E 022°59'713.5
2018-May-18 10:31N 59°46' E 023°01'3 0.4
2018-May-18 02:22N 59°49' E 022°57'615.4
2018-May-18 01:58N 59°44' E 023°04'24216.1
2018-May-17 10:55N 56°39' E 018°06'1216.3
2018-May-17 10:11N 56°31' E 017°49'516.5
2018-May-17 09:53N 56°28' E 017°42'6816.3
2018-May-17 05:43N 55°49' E 016°02'316.3
2018-May-17 05:30N 55°48' E 015°57'816.3
2018-May-17 05:00N 55°44' E 015°44'816.2
2018-May-17 04:30N 55°40' E 015°32'816.3
2018-May-17 04:00N 55°36' E 015°19'816.5
2018-May-17 03:30N 55°32' E 015°06'816.3
2018-May-17 03:00N 55°28' E 014°54'816.5
2018-May-17 02:30N 55°24' E 014°41'816.2
2018-May-17 02:00N 55°18' E 014°31'916.3
2018-May-17 01:26N 55°11' E 014°21'716.3
2018-May-17 01:00N 55°05' E 014°14'815.6
2018-May-17 00:30N 54°60' E 014°04'2416.1
2018-May-16 23:03N 54°52' E 013°25'116.1
2018-May-16 23:00N 54°52' E 013°23'1016.0
2018-May-16 22:24N 54°49' E 013°08'615.8
2018-May-16 22:00N 54°46' E 012°57'815.8
2018-May-16 21:30N 54°44' E 012°45'815.6
2018-May-16 21:00N 54°39' E 012°34'816.0
2018-May-16 20:30N 54°34' E 012°23'815.7
2018-May-16 20:00N 54°28' E 012°15'1114.7
2018-May-16 19:17N 54°19' E 012°06'412.9
2018-May-16 18:59N 54°15' E 012°04'510.1
2018-May-16 18:30N 54°10' E 012°06'2 3.8
2018-May-16 18:00N 54°08' E 012°06'0 0.0
2018-May-16 16:33N 54°08' E 012°06'0 0.0
2018-May-16 16:30N 54°08' E 012°06'0 0.0
2018-May-16 13:12N 54°08' E 012°06'0 0.0
2018-May-16 12:42N 54°08' E 012°06'0 0.0
2018-May-16 12:27N 54°08' E 012°06'0 0.0
2018-May-16 12:00N 54°08' E 012°06'0 0.0
2018-May-16 11:00N 54°08' E 012°06'0 0.0
2018-May-16 10:30N 54°08' E 012°06'0 0.0
2018-May-16 10:00N 54°08' E 012°06'0 0.0
2018-May-16 07:12N 54°08' E 012°06'0 0.0
2018-May-16 07:00N 54°08' E 012°06'0 0.0
2018-May-16 06:27N 54°08' E 012°06'0 0.0
2018-May-16 06:00N 54°08' E 012°06'0 0.0
2018-May-16 05:27N 54°08' E 012°06'0 0.0
2018-May-16 04:51N 54°08' E 012°06'0 0.0
2018-May-16 03:09N 54°08' E 012°06'0 1.9
2018-May-16 03:00N 54°09' E 012°06'2 3.7
2018-May-16 02:30N 54°10' E 012°06'3 5.6
2018-May-16 02:00N 54°13' E 012°04'4 8.1
2018-May-16 01:29N 54°17' E 012°01'815.9
2018-May-16 01:01N 54°23' E 012°08'816.0
2018-May-16 00:31N 54°31' E 012°13'5216.5
2018-May-15 21:21N 54°57' E 013°32'1717.4
2018-May-15 20:24N 55°03' E 013°58'716.6
2018-May-15 20:00N 55°06' E 014°08'917.1
2018-May-15 19:30N 55°13' E 014°17'917.1
2018-May-15 19:00N 55°20' E 014°27'917.2
2018-May-15 18:30N 55°26' E 014°36'917.4
2018-May-15 18:00N 55°31' E 014°50'917.4
2018-May-15 17:30N 55°35' E 015°03'917.4
2018-May-15 17:00N 55°39' E 015°16'34717.2
2018-May-14 20:49N 59°40' E 023°03'515.6
2018-May-14 20:31N 59°45' E 023°02'510.0
2018-May-14 20:00N 59°49' E 022°57'0 0.0
2018-May-14 19:18N 59°49' E 022°57'0 0.0
2018-May-14 18:48N 59°49' E 022°57'0 0.0
2018-May-14 17:18N 59°49' E 022°57'0 0.0
2018-May-14 07:52N 59°49' E 022°57'0 0.2
2018-May-14 07:19N 59°49' E 022°57'0 0.0
2018-May-14 03:44N 59°49' E 022°57'0 0.0
2018-May-14 02:42N 59°49' E 022°57'0 1.0
2018-May-14 02:29N 59°49' E 022°57'713.8
2018-May-14 02:00N 59°44' E 023°04'917.9
2018-May-14 01:30N 59°35' E 022°59'24218.3
2018-May-13 12:16N 56°51' E 017°20'519.6
2018-May-13 12:00N 56°46' E 017°16'1019.5
2018-May-13 11:31N 56°37' E 017°11'1019.6
2018-May-13 11:00N 56°28' E 017°04'1019.4
2018-May-13 10:30N 56°19' E 016°58'1019.5
2018-May-13 10:00N 56°10' E 016°51'918.8
2018-May-13 09:31N 56°03' E 016°41'1019.3
2018-May-13 09:01N 55°57' E 016°27'1019.1
2018-May-13 08:30N 55°52' E 016°13'1019.1
2018-May-13 08:01N 55°47' E 015°58'1019.2
2018-May-13 07:31N 55°42' E 015°44'1019.5
2018-May-13 07:00N 55°37' E 015°28'1019.3
2018-May-13 06:31N 55°33' E 015°13'1019.4
2018-May-13 06:01N 55°29' E 014°58'1019.4
2018-May-13 05:31N 55°24' E 014°43'1019.2
2018-May-13 05:00N 55°18' E 014°30'1019.5
2018-May-13 04:30N 55°10' E 014°19'1019.6
2018-May-13 04:00N 55°02' E 014°09'1419.3
2018-May-13 03:17N 54°57' E 013°47'719.5
2018-May-13 02:55N 54°55' E 013°35'2619.0
2018-May-13 01:32N 54°46' E 012°52'217.2
2018-May-13 01:27N 54°46' E 012°49'817.0
2018-May-13 00:58N 54°41' E 012°37'817.1
2018-May-13 00:30N 54°36' E 012°27'816.9
2018-May-13 00:00N 54°30' E 012°16'816.9
2018-May-12 23:30N 54°23' E 012°08'714.6
2018-May-12 23:00N 54°16' E 012°04'612.0
2018-May-12 22:30N 54°11' E 012°06'2 4.1
2018-May-12 22:00N 54°09' E 012°06'0 0.0
2018-May-12 21:30N 54°09' E 012°06'0 0.0
2018-May-12 20:59N 54°09' E 012°06'0 0.0
2018-May-12 20:29N 54°09' E 012°06'0 0.0
2018-May-12 19:56N 54°09' E 012°06'0 0.0
2018-May-12 17:53N 54°09' E 012°06'0 0.0
2018-May-12 16:56N 54°09' E 012°06'0 0.0
2018-May-12 15:59N 54°09' E 012°06'0 0.0
2018-May-12 15:23N 54°09' E 012°06'0 0.0
2018-May-12 14:56N 54°09' E 012°06'1 1.3
2018-May-12 14:29N 54°09' E 012°06'2 3.9
2018-May-12 14:00N 54°11' E 012°05'612.6
2018-May-12 13:30N 54°17' E 012°01'816.8
2018-May-12 13:00N 54°24' E 012°08'1616.8
2018-May-12 12:04N 54°38' E 012°20'218.5
2018-May-12 11:58N 54°39' E 012°23'918.6
2018-May-12 11:28N 54°44' E 012°37'1518.2
2018-May-12 10:37N 54°50' E 013°01'318.0
2018-May-12 10:28N 54°51' E 013°05'918.4
2018-May-12 09:59N 54°54' E 013°20'918.1
2018-May-12 09:29N 54°57' E 013°35'1217.9
2018-May-12 08:50N 55°01' E 013°54'618.3
2018-May-12 08:30N 55°04' E 014°03'918.1
2018-May-12 08:01N 55°11' E 014°14'918.1
2018-May-12 07:30N 55°17' E 014°24'918.5
2018-May-12 07:00N 55°24' E 014°35'918.4
2018-May-12 06:30N 55°30' E 014°48'918.5
2018-May-12 06:00N 55°34' E 015°02'918.4
2018-May-12 05:30N 55°39' E 015°17'918.3
2018-May-12 05:01N 55°44' E 015°30'918.4
2018-May-12 04:30N 55°49' E 015°44'918.5
2018-May-12 04:00N 55°54' E 015°58'918.9
2018-May-12 03:31N 55°58' E 016°13'919.0
2018-May-12 03:00N 56°03' E 016°28'2318.0
2018-May-12 01:44N 56°21' E 016°53'  

Dump ship's entire track history